Time;durP1;ratioP1;P1;durP2;ratioP2;P2;SDS_P1;SDS_P2;PMS_P1;PMS_P2;Temp;Humidity;BMP_temperature;BMP_pressure;BME280_temperature;BME280_humidity;BME280_pressure;Samples;Min_cycle;Max_cycle;Signal;HPM_P1;HPM_P2
2024/03/16 00:00:13;;;;;;;44.92;6.28;;;11.50;99.90;;;;;;6328891;22;38328;-80
2024/03/16 00:02:53;;;;;;;35.88;5.78;;;11.40;99.90;;;;;;6325379;22;40448;-81
2024/03/16 00:05:20;;;;;;;44.47;5.95;;;11.40;99.90;;;;;;6329851;22;38130;-80
2024/03/16 00:07:47;;;;;;;45.40;8.27;;;11.40;99.90;;;;;;6329669;22;39531;-80
2024/03/16 00:10:13;;;;;;;43.88;7.28;;;11.40;99.90;;;;;;6302307;22;38257;-80
2024/03/16 00:12:39;;;;;;;48.90;5.72;;;11.40;99.90;;;;;;6302328;22;38738;-79
2024/03/16 00:15:14;;;;;;;30.67;5.30;;;11.40;99.90;;;;;;6298362;22;37659;-79
2024/03/16 00:17:40;;;;;;;39.42;7.25;;;11.30;99.90;;;;;;6300594;22;38887;-80
2024/03/16 00:20:10;;;;;;;42.08;6.97;;;11.30;99.90;;;;;;6327261;22;37150;-80
2024/03/16 00:22:39;;;;;;;43.38;6.28;;;11.30;99.90;;;;;;6299721;22;38851;-80
2024/03/16 00:25:06;;;;;;;41.60;6.25;;;11.30;99.90;;;;;;6301133;22;39598;-81
2024/03/16 00:27:35;;;;;;;38.55;6.95;;;11.30;99.90;;;;;;6332182;22;39132;-80
2024/03/16 00:30:04;;;;;;;42.00;8.45;;;11.30;99.90;;;;;;6328385;22;37385;-81
2024/03/16 00:32:31;;;;;;;36.03;6.63;;;11.20;99.90;;;;;;6295649;22;39847;-79
2024/03/16 00:34:58;;;;;;;38.10;6.65;;;11.20;99.90;;;;;;6296244;22;37692;-80
2024/03/16 00:37:24;;;;;;;36.55;6.40;;;11.20;99.90;;;;;;6294554;22;39399;-80
2024/03/16 00:39:50;;;;;;;32.08;5.88;;;11.20;99.90;;;;;;6298179;22;35787;-80
2024/03/16 00:42:16;;;;;;;16.70;3.75;;;11.10;99.90;;;;;;6295970;22;39446;-80
2024/03/16 00:44:42;;;;;;;12.85;3.45;;;11.00;99.90;;;;;;6321547;22;39423;-80
2024/03/16 00:47:10;;;;;;;18.93;3.07;;;10.80;75.10;;;;;;6293702;22;39733;-80
2024/03/16 00:49:36;;;;;;;14.98;3.38;;;10.80;50.00;;;;;;6297635;22;36210;-79
2024/03/16 00:52:02;;;;;;;12.27;2.75;;;10.70;43.20;;;;;;6319465;22;38630;-80
2024/03/16 00:54:29;;;;;;;15.93;4.30;;;10.70;38.60;;;;;;6320402;22;39705;-79
2024/03/16 00:56:55;;;;;;;15.57;3.58;;;10.60;50.00;;;;;;6293289;22;38390;-79
2024/03/16 00:59:22;;;;;;;14.27;4.33;;;10.50;55.70;;;;;;6293012;22;38877;-80
2024/03/16 01:01:48;;;;;;;16.47;3.30;;;10.50;65.10;;;;;;6319854;22;39479;-80
2024/03/16 01:04:14;;;;;;;16.13;4.00;;;10.40;75.40;;;;;;6317491;22;39078;-80
2024/03/16 01:06:43;;;;;;;20.33;4.27;;;10.40;84.50;;;;;;6318536;22;39157;-80
2024/03/16 01:09:10;;;;;;;15.57;3.93;;;10.40;91.90;;;;;;6290757;22;36539;-80
2024/03/16 01:11:36;;;;;;;17.47;4.30;;;10.40;95.50;;;;;;6322559;22;39533;-80
2024/03/16 01:14:04;;;;;;;20.40;4.83;;;10.30;98.90;;;;;;6321819;22;39013;-79
2024/03/16 01:16:31;;;;;;;13.83;4.07;;;10.30;99.90;;;;;;6290711;22;39329;-79
2024/03/16 01:18:57;;;;;;;13.63;4.23;;;10.20;99.90;;;;;;6290291;22;37983;-79
2024/03/16 01:21:23;;;;;;;14.83;5.20;;;10.20;99.90;;;;;;6289941;22;38008;-80
2024/03/16 01:23:49;;;;;;;15.93;5.17;;;10.10;99.90;;;;;;6290993;22;38984;-79
2024/03/16 01:26:15;;;;;;;12.40;5.70;;;10.10;99.90;;;;;;6315204;22;39284;-80
2024/03/16 01:28:41;;;;;;;15.80;5.13;;;10.00;99.90;;;;;;6317859;22;38150;-79
2024/03/16 01:31:08;;;;;;;12.20;4.40;;;9.90;99.90;;;;;;6287262;22;37401;-79
2024/03/16 01:33:34;;;;;;;9.70;3.50;;;9.80;99.90;;;;;;6316544;22;39507;-79
2024/03/16 01:36:00;;;;;;;15.53;4.00;;;9.80;99.90;;;;;;6286820;22;38203;-79
2024/03/16 01:38:27;;;;;;;13.60;3.83;;;9.70;99.90;;;;;;6315639;22;38651;-80
2024/03/16 01:40:53;;;;;;;11.00;3.97;;;9.80;99.90;;;;;;6288483;22;38708;-79
2024/03/16 01:43:19;;;;;;;15.33;4.50;;;9.80;99.90;;;;;;6317179;22;38800;-79
2024/03/16 01:45:45;;;;;;;14.10;4.50;;;9.70;99.90;;;;;;6318424;22;38750;-79
2024/03/16 01:48:12;;;;;;;15.73;4.87;;;9.70;99.90;;;;;;6316652;22;37159;-79
2024/03/16 01:50:39;;;;;;;15.90;4.20;;;9.60;99.90;;;;;;6293588;22;39265;-80
2024/03/16 01:53:09;;;;;;;18.27;4.10;;;9.60;99.90;;;;;;6290074;22;39310;-79
2024/03/16 01:55:36;;;;;;;14.83;4.50;;;9.50;99.90;;;;;;6289385;22;38499;-79
2024/03/16 01:58:04;;;;;;;18.23;3.70;;;9.50;99.90;;;;;;6319583;22;37549;-80
2024/03/16 02:03:06;;;;;;;18.23;3.70;;;9.50;99.90;;;;;;6297008;22;20030;-80
2024/03/16 02:05:32;;;;;;;16.83;4.40;;;9.50;99.90;;;;;;6302465;22;38710;-80
2024/03/16 02:07:59;;;;;;;17.57;3.87;;;9.50;99.90;;;;;;6280772;22;39088;-80
2024/03/16 02:10:25;;;;;;;21.40;4.87;;;9.50;99.90;;;;;;6306784;22;38888;-80
2024/03/16 02:12:52;;;;;;;25.03;4.40;;;9.50;99.90;;;;;;6307748;22;38576;-80
2024/03/16 02:15:18;;;;;;;18.10;4.20;;;9.50;99.90;;;;;;6279371;22;40424;-80
2024/03/16 02:17:46;;;;;;;21.30;4.70;;;9.50;99.90;;;;;;6309203;22;37087;-81
2024/03/16 02:20:15;;;;;;;19.87;4.60;;;9.50;99.90;;;;;;6306627;22;39810;-80
2024/03/16 02:22:42;;;;;;;12.43;2.73;;;9.40;99.90;;;;;;6281669;22;39156;-80
2024/03/16 02:25:12;;;;;;;18.20;2.70;;;9.20;99.90;;;;;;6278467;22;40013;-80
2024/03/16 02:27:39;;;;;;;9.93;1.83;;;9.10;99.90;;;;;;6307795;22;37138;-80
2024/03/16 02:30:10;;;;;;;16.40;2.50;;;9.00;99.90;;;;;;6279241;22;39191;-80
2024/03/16 02:32:36;;;;;;;10.13;1.80;;;9.00;99.90;;;;;;6279710;22;37747;-80
2024/03/16 02:35:03;;;;;;;8.63;1.93;;;9.00;99.90;;;;;;6310004;22;38296;-80
2024/03/16 02:37:29;;;;;;;10.20;1.70;;;9.00;99.90;;;;;;6279894;22;38305;-80
2024/03/16 02:39:55;;;;;;;10.73;1.80;;;8.90;99.90;;;;;;6308423;22;38541;-80
2024/03/16 02:42:21;;;;;;;14.00;2.40;;;8.90;99.90;;;;;;6307705;22;39884;-80
2024/03/16 02:44:48;;;;;;;12.23;2.03;;;8.90;99.90;;;;;;6279860;22;39238;-80
2024/03/16 02:47:14;;;;;;;11.93;1.73;;;9.00;99.90;;;;;;6280096;22;39049;-80
2024/03/16 02:49:41;;;;;;;11.10;1.80;;;9.00;99.90;;;;;;6280565;22;39036;-80
2024/03/16 02:52:09;;;;;;;9.53;1.30;;;9.00;99.90;;;;;;6280530;22;39379;-80
2024/03/16 02:54:35;;;;;;;11.93;1.70;;;9.00;99.90;;;;;;6280262;22;39824;-80
2024/03/16 02:57:01;;;;;;;15.20;1.70;;;9.00;99.90;;;;;;6306917;22;37274;-80
2024/03/16 02:59:29;;;;;;;10.47;1.93;;;9.00;99.90;;;;;;6279641;22;46999;-79
2024/03/16 03:01:57;;;;;;;14.07;2.23;;;9.00;99.90;;;;;;6281843;22;37691;-80
2024/03/16 03:04:23;;;;;;;12.90;1.90;;;9.00;99.90;;;;;;6279342;22;40077;-80
2024/03/16 03:06:49;;;;;;;13.60;1.60;;;9.10;99.90;;;;;;6277484;22;37994;-80
2024/03/16 03:09:17;;;;;;;9.80;1.97;;;9.10;99.90;;;;;;6307013;22;39505;-80
2024/03/16 03:11:44;;;;;;;13.23;1.53;;;9.10;99.90;;;;;;6279467;22;40447;-80
2024/03/16 03:14:10;;;;;;;14.30;1.73;;;9.10;99.90;;;;;;6306428;22;39538;-80
2024/03/16 03:16:36;;;;;;;10.20;1.37;;;9.10;99.90;;;;;;6278341;22;37755;-80
2024/03/16 03:19:02;;;;;;;11.03;1.87;;;9.00;99.90;;;;;;6307001;22;39067;-80
2024/03/16 03:21:29;;;;;;;9.60;1.40;;;9.00;99.90;;;;;;6306902;22;39441;-81
2024/03/16 03:23:55;;;;;;;13.17;1.40;;;9.00;99.90;;;;;;6279670;22;39184;-80
2024/03/16 03:26:22;;;;;;;7.53;1.10;;;9.00;99.90;;;;;;6305522;22;37025;-80
2024/03/16 03:28:49;;;;;;;4.37;1.93;;;8.90;99.90;;;;;;6280970;22;39562;-81
2024/03/16 03:31:16;;;;;;;5.67;0.87;;;9.00;99.90;;;;;;6278562;22;40476;-80
2024/03/16 03:33:42;;;;;;;3.83;0.77;;;8.90;99.90;;;;;;6279830;22;40283;-80
2024/03/16 03:36:08;;;;;;;6.63;0.97;;;8.90;99.90;;;;;;6307586;22;37497;-80
2024/03/16 03:38:34;;;;;;;6.03;0.70;;;8.90;99.90;;;;;;6281306;22;38784;-80
2024/03/16 03:41:00;;;;;;;4.70;0.90;;;8.90;99.90;;;;;;6308940;22;38779;-80
2024/03/16 03:43:26;;;;;;;6.17;1.43;;;8.90;99.90;;;;;;6309448;22;39134;-80
2024/03/16 03:45:53;;;;;;;9.90;1.93;;;8.90;99.90;;;;;;6281808;22;39217;-80
2024/03/16 03:50:58;;;;;;;6.50;1.10;;;8.90;99.90;;;;;;6309710;22;40166;-80
2024/03/16 03:53:25;;;;;;;10.67;1.10;;;8.90;99.90;;;;;;6278996;22;38956;-80
2024/03/16 03:55:52;;;;;;;8.07;0.90;;;8.90;99.90;;;;;;6280189;22;36007;-80
2024/03/16 03:58:20;;;;;;;6.43;1.00;;;8.90;99.90;;;;;;6277638;22;37723;-79
2024/03/16 04:00:48;;;;;;;4.03;0.70;;;8.90;99.90;;;;;;6309601;22;38797;-80
2024/03/16 04:03:15;;;;;;;8.97;1.03;;;8.90;99.90;;;;;;6308430;22;38200;-79
2024/03/16 04:05:42;;;;;;;7.67;1.47;;;8.90;99.90;;;;;;6309476;22;38163;-80
2024/03/16 04:08:09;;;;;;;10.10;1.40;;;8.90;99.90;;;;;;6307198;22;38573;-79
2024/03/16 04:10:37;;;;;;;6.37;0.90;;;8.90;99.90;;;;;;6281753;22;40664;-80
2024/03/16 04:13:03;;;;;;;4.90;0.60;;;8.80;99.90;;;;;;6279781;22;39133;-80
2024/03/16 04:15:30;;;;;;;4.33;0.67;;;8.70;99.90;;;;;;6286274;22;39252;-78
2024/03/16 04:17:56;;;;;;;7.17;0.93;;;8.70;99.90;;;;;;6290478;22;37522;-79
2024/03/16 04:20:22;;;;;;;6.30;0.73;;;8.70;99.90;;;;;;6289925;22;39561;-80
2024/03/16 04:22:49;;;;;;;4.97;1.03;;;8.60;99.90;;;;;;6317759;22;38262;-78
2024/03/16 04:25:16;;;;;;;2.60;0.97;;;8.60;99.90;;;;;;6288786;22;36076;-79
2024/03/16 04:27:44;;;;;;;9.93;1.40;;;8.60;99.90;;;;;;6317455;22;39070;-78
2024/03/16 04:30:13;;;;;;;10.20;1.40;;;8.60;99.90;;;;;;6287408;22;39725;-79
2024/03/16 04:32:39;;;;;;;10.67;1.50;;;8.60;99.90;;;;;;6317400;22;39316;-79
2024/03/16 04:35:06;;;;;;;12.30;1.50;;;8.60;99.90;;;;;;6315787;22;37618;-80
2024/03/16 04:37:35;;;;;;;6.93;1.27;;;8.60;99.90;;;;;;6317555;22;39221;-80
2024/03/16 04:40:06;;;;;;;11.03;1.20;;;8.60;99.90;;;;;;6311164;22;38745;-80
2024/03/16 04:42:32;;;;;;;6.13;1.00;;;8.60;99.90;;;;;;6311619;22;48915;-80
2024/03/16 04:44:58;;;;;;;11.50;1.70;;;8.60;99.90;;;;;;6283750;22;38091;-80
2024/03/16 04:47:24;;;;;;;6.90;1.00;;;8.70;99.90;;;;;;6281033;22;40539;-80
2024/03/16 04:49:50;;;;;;;9.97;1.30;;;8.70;99.90;;;;;;6281640;22;40876;-79
2024/03/16 04:52:16;;;;;;;6.80;1.10;;;8.70;99.90;;;;;;6280915;22;39004;-79
2024/03/16 04:54:42;;;;;;;8.77;1.20;;;8.70;99.90;;;;;;6282244;22;39094;-80
2024/03/16 04:57:09;;;;;;;11.03;1.77;;;8.70;99.90;;;;;;6279711;22;37592;-79
2024/03/16 04:59:35;;;;;;;6.97;1.10;;;8.70;99.90;;;;;;6312688;22;38997;-79
2024/03/16 05:02:01;;;;;;;13.40;2.60;;;8.70;99.90;;;;;;6308734;22;39405;-80
2024/03/16 05:04:28;;;;;;;14.03;1.33;;;8.80;99.90;;;;;;6283923;22;46461;-80
2024/03/16 05:06:54;;;;;;;15.37;1.70;;;8.80;99.90;;;;;;6310671;22;39991;-79
2024/03/16 05:09:20;;;;;;;10.10;1.93;;;8.80;99.90;;;;;;6281826;22;37601;-80
2024/03/16 05:11:46;;;;;;;10.37;0.93;;;8.60;99.90;;;;;;6281079;22;39056;-79
2024/03/16 05:14:12;;;;;;;7.67;0.97;;;8.50;99.90;;;;;;6280615;22;37604;-79
2024/03/16 05:16:42;;;;;;;7.13;1.03;;;8.30;99.90;;;;;;6310366;22;38750;-79
2024/03/16 05:19:08;;;;;;;10.23;1.37;;;8.20;99.90;;;;;;6281795;22;39982;-79
2024/03/16 05:21:34;;;;;;;5.90;0.70;;;8.10;99.90;;;;;;6311029;22;38876;-79
2024/03/16 05:24:01;;;;;;;6.03;0.90;;;8.00;99.90;;;;;;6281633;22;38400;-79
2024/03/16 05:26:31;;;;;;;6.63;1.10;;;8.00;99.90;;;;;;6282146;22;46951;-79
2024/03/16 05:28:58;;;;;;;6.73;1.13;;;7.90;99.90;;;;;;6281111;22;39351;-80
2024/03/16 05:31:24;;;;;;;10.07;1.80;;;7.90;99.90;;;;;;6280633;22;39579;-79
2024/03/16 05:33:50;;;;;;;6.93;0.77;;;7.80;99.90;;;;;;6310045;22;38067;-79
2024/03/16 05:36:17;;;;;;;4.10;0.90;;;7.70;99.90;;;;;;6281404;22;37943;-79
2024/03/16 05:38:45;;;;;;;6.63;1.10;;;7.70;99.90;;;;;;6284289;22;40516;-79
2024/03/16 05:41:15;;;;;;;6.13;1.03;;;7.60;99.90;;;;;;6282071;22;39213;-79
2024/03/16 05:43:43;;;;;;;5.53;1.10;;;7.60;99.90;;;;;;6283255;22;36250;-78
2024/03/16 05:46:13;;;;;;;9.60;1.03;;;7.50;99.90;;;;;;6281338;22;38736;-80
2024/03/16 05:48:39;;;;;;;5.30;0.80;;;7.60;99.90;;;;;;6282132;22;40306;-79
2024/03/16 05:51:05;;;;;;;5.40;1.17;;;7.50;99.90;;;;;;6280571;22;37317;-79
2024/03/16 05:53:32;;;;;;;4.77;1.17;;;7.50;99.90;;;;;;6310295;22;37328;-79
2024/03/16 05:55:58;;;;;;;7.97;1.13;;;7.50;99.90;;;;;;6281128;22;37751;-79
2024/03/16 05:58:24;;;;;;;7.73;1.30;;;7.50;99.90;;;;;;6281265;22;40230;-80
2024/03/16 06:00:50;;;;;;;11.77;1.83;;;7.50;99.90;;;;;;6282410;22;37283;-79
2024/03/16 06:03:16;;;;;;;7.93;1.23;;;7.50;99.90;;;;;;6278977;22;39228;-80
2024/03/16 06:05:47;;;;;;;6.50;1.50;;;7.50;99.90;;;;;;6282302;22;40563;-80
2024/03/16 06:08:16;;;;;;;16.10;2.10;;;7.60;99.90;;;;;;6307825;22;39574;-79
2024/03/16 06:10:42;;;;;;;10.97;1.63;;;7.60;99.90;;;;;;6281250;22;39153;-79
2024/03/16 06:13:10;;;;;;;8.90;1.53;;;7.70;99.90;;;;;;6281278;22;36352;-79
2024/03/16 06:15:38;;;;;;;9.90;1.70;;;7.70;99.90;;;;;;6280360;22;40584;-80
2024/03/16 06:18:05;;;;;;;16.37;3.97;;;7.80;99.90;;;;;;6279820;22;38873;-79
2024/03/16 06:20:31;;;;;;;8.13;1.50;;;7.80;99.90;;;;;;6309041;22;39318;-78
2024/03/16 06:22:58;;;;;;;8.70;1.40;;;7.80;99.90;;;;;;6310782;22;37260;-79
2024/03/16 06:25:24;;;;;;;13.83;1.60;;;7.90;99.90;;;;;;6283032;22;40679;-79
2024/03/16 06:27:52;;;;;;;12.93;1.63;;;7.90;99.90;;;;;;6311170;22;39119;-79
2024/03/16 06:30:27;;;;;;;7.93;1.20;;;7.90;99.90;;;;;;6279009;22;38745;-79
2024/03/16 06:33:08;;;;;;;10.27;1.30;;;7.90;99.90;;;;;;6282722;22;37864;-79
2024/03/16 06:35:41;;;;;;;10.43;1.50;;;7.90;99.90;;;;;;6308134;22;49159;-80
2024/03/16 06:38:08;;;;;;;7.50;1.30;;;8.00;99.90;;;;;;6308130;22;39936;-79
2024/03/16 06:40:34;;;;;;;9.63;1.27;;;8.00;99.90;;;;;;6278120;22;39041;-79
2024/03/16 06:43:00;;;;;;;4.70;0.97;;;8.00;99.90;;;;;;6279968;22;37782;-79
2024/03/16 06:45:26;;;;;;;7.90;1.40;;;7.90;99.90;;;;;;6280003;22;40200;-79
2024/03/16 06:47:52;;;;;;;10.23;1.40;;;7.90;99.90;;;;;;6279692;22;38632;-79
2024/03/16 06:50:21;;;;;;;7.03;1.10;;;7.90;92.80;;;;;;6280868;22;39275;-79
2024/03/16 06:52:47;;;;;;;4.50;1.00;;;8.00;96.80;;;;;;6308929;22;37309;-80
2024/03/16 06:55:17;;;;;;;6.53;2.03;;;8.00;96.90;;;;;;6279142;22;37017;-80
2024/03/16 06:57:44;;;;;;;5.40;1.17;;;8.00;99.90;;;;;;6312194;22;38956;-80
2024/03/16 07:00:11;;;;;;;5.97;0.63;;;8.10;99.90;;;;;;6313639;22;38461;-80
2024/03/16 07:02:37;;;;;;;3.67;0.80;;;8.10;81.50;;;;;;6283817;22;37081;-80
2024/03/16 07:05:04;;;;;;;8.10;0.83;;;8.10;62.40;;;;;;6312325;22;38726;-79
2024/03/16 07:07:30;;;;;;;3.53;0.50;;;8.20;62.10;;;;;;6310793;22;38975;-80
2024/03/16 07:09:57;;;;;;;6.33;0.70;;;8.20;52.20;;;;;;6284912;22;37481;-79
2024/03/16 07:12:23;;;;;;;5.67;1.03;;;8.30;49.80;;;;;;6308765;22;38332;-80
2024/03/16 07:14:50;;;;;;;6.97;1.10;;;8.40;29.20;;;;;;6284164;22;39867;-80
2024/03/16 07:17:16;;;;;;;7.50;1.60;;;8.40;35.20;;;;;;6310566;22;39027;-80
2024/03/16 07:19:42;;;;;;;5.60;1.60;;;8.40;40.30;;;;;;6282943;22;39062;-81
2024/03/16 07:22:08;;;;;;;11.47;1.47;;;8.30;58.30;;;;;;6282061;22;37389;-79
2024/03/16 07:24:34;;;;;;;8.40;1.57;;;8.30;69.80;;;;;;6283228;22;39323;-80
2024/03/16 07:27:01;;;;;;;8.60;1.70;;;8.30;85.50;;;;;;6282372;22;39156;-80
2024/03/16 07:29:28;;;;;;;6.83;1.30;;;8.30;87.00;;;;;;6309204;22;46930;-79
2024/03/16 07:31:54;;;;;;;9.53;1.53;;;8.40;88.50;;;;;;6279565;22;36663;-79
2024/03/16 07:34:21;;;;;;;8.67;1.37;;;8.40;86.30;;;;;;6279989;22;39501;-79
2024/03/16 07:36:48;;;;;;;9.67;1.30;;;8.40;72.40;;;;;;6279324;22;39400;-79
2024/03/16 07:39:14;;;;;;;6.37;1.30;;;8.40;79.50;;;;;;6278934;22;38681;-79
2024/03/16 07:41:40;;;;;;;5.67;1.40;;;8.40;78.80;;;;;;6280703;22;36161;-79
2024/03/16 07:44:06;;;;;;;9.23;1.53;;;8.50;88.60;;;;;;6302798;22;39475;-79
2024/03/16 07:46:32;;;;;;;11.23;2.60;;;8.50;86.00;;;;;;6307372;22;39260;-79
2024/03/16 07:49:01;;;;;;;5.97;1.43;;;8.50;54.60;;;;;;6280248;22;38766;-79
2024/03/16 07:51:29;;;;;;;5.93;1.07;;;8.50;51.80;;;;;;6282400;22;47503;-79
2024/03/16 07:53:55;;;;;;;8.93;1.13;;;8.50;52.70;;;;;;6279556;22;38099;-80
2024/03/16 07:56:22;;;;;;;7.10;1.83;;;8.50;28.90;;;;;;6279737;22;37786;-79
2024/03/16 07:58:48;;;;;;;9.30;1.23;;;8.50;34.20;;;;;;6282036;22;38670;-79
2024/03/16 08:01:15;;;;;;;5.43;0.97;;;8.50;1.00;;;;;;6306965;22;37375;-80
2024/03/16 08:03:42;;;;;;;10.97;1.10;;;8.60;1.00;;;;;;6308355;22;38488;-79
2024/03/16 08:06:08;;;;;;;8.47;1.17;;;8.70;1.00;;;;;;6308088;22;38739;-79
2024/03/16 08:08:35;;;;;;;5.73;0.90;;;8.80;1.00;;;;;;6281580;22;37452;-79
2024/03/16 08:11:01;;;;;;;5.00;0.87;;;9.00;6.30;;;;;;6309054;22;37046;-79
2024/03/16 08:13:27;;;;;;;5.83;0.90;;;9.00;1.00;;;;;;6280438;22;47092;-80
2024/03/16 08:15:53;;;;;;;8.03;1.33;;;9.10;1.00;;;;;;6311300;22;39257;-80
2024/03/16 08:18:19;;;;;;;6.53;1.17;;;9.20;1.00;;;;;;6282481;22;37401;-79
2024/03/16 08:20:46;;;;;;;7.53;1.00;;;9.30;1.00;;;;;;6314237;22;37087;-78
2024/03/16 08:23:12;;;;;;;5.10;0.90;;;9.30;1.00;;;;;;6285013;22;37705;-79
2024/03/16 08:25:40;;;;;;;3.45;1.00;;;9.40;1.00;;;;;;6284790;22;37826;-79
2024/03/16 08:28:07;;;;;;;3.95;0.93;;;9.40;1.00;;;;;;6285358;22;37744;-77
2024/03/16 08:30:33;;;;;;;6.25;1.00;;;9.50;1.00;;;;;;6282975;22;36934;-77
2024/03/16 08:32:59;;;;;;;4.82;0.82;;;9.50;1.00;;;;;;6281819;22;39323;-77
2024/03/16 08:35:25;;;;;;;5.13;1.03;;;9.50;1.00;;;;;;6284436;22;37626;-77
2024/03/16 08:37:51;;;;;;;3.67;0.70;;;9.60;1.00;;;;;;6312182;22;39142;-77
2024/03/16 08:40:18;;;;;;;4.37;0.90;;;9.60;1.00;;;;;;6311631;22;37118;-79
2024/03/16 08:42:46;;;;;;;5.03;0.90;;;9.50;1.00;;;;;;6311509;22;39100;-77
2024/03/16 08:45:13;;;;;;;6.88;1.00;;;9.50;1.00;;;;;;6280524;22;38715;-77
2024/03/16 08:47:41;;;;;;;6.63;1.40;;;9.40;1.00;;;;;;6311914;22;38128;-77
2024/03/16 08:50:08;;;;;;;5.60;0.90;;;9.30;1.00;;;;;;6282796;22;35946;-77
2024/03/16 08:52:35;;;;;;;5.33;1.17;;;9.30;1.00;;;;;;6310893;22;38473;-78
2024/03/16 08:55:02;;;;;;;9.67;1.17;;;9.30;1.00;;;;;;6307870;22;40605;-77
2024/03/16 08:57:29;;;;;;;9.83;1.17;;;9.40;1.00;;;;;;6275829;22;47151;-79
2024/03/16 08:59:55;;;;;;;5.03;1.13;;;9.40;1.00;;;;;;6282959;22;36394;-77
2024/03/16 09:02:24;;;;;;;5.47;0.97;;;9.50;1.00;;;;;;6280950;22;37559;-77
2024/03/16 09:04:56;;;;;;;6.28;1.33;;;9.50;1.00;;;;;;6308651;22;39662;-76
2024/03/16 09:07:23;;;;;;;;;;;9.60;1.00;;;;;;6306628;22;39088;-77
2024/03/16 09:09:52;;;;;;;7.67;0.97;;;9.60;1.00;;;;;;6280578;22;36609;-78
2024/03/16 09:12:19;;;;;;;5.95;0.70;;;9.70;1.00;;;;;;6279586;22;38176;-77
2024/03/16 09:14:45;;;;;;;6.43;1.13;;;9.80;1.00;;;;;;6280012;22;38322;-77
2024/03/16 09:17:11;;;;;;;7.60;1.00;;;9.90;1.00;;;;;;6311193;22;38968;-79
2024/03/16 09:19:37;;;;;;;3.80;1.20;;;9.90;1.00;;;;;;6284996;22;36101;-77
2024/03/16 09:22:03;;;;;;;6.07;1.00;;;9.90;1.00;;;;;;6310439;22;40796;-77
2024/03/16 09:24:30;;;;;;;5.93;0.90;;;9.90;1.00;;;;;;6281969;22;37786;-77
2024/03/16 09:26:56;;;;;;;7.20;1.08;;;9.80;1.00;;;;;;6282463;22;37453;-78
2024/03/16 09:29:22;;;;;;;7.63;1.07;;;9.90;1.00;;;;;;6280318;22;36927;-77
2024/03/16 09:31:48;;;;;;;6.28;1.02;;;10.10;1.00;;;;;;6281638;22;39189;-78
2024/03/16 09:34:14;;;;;;;7.50;1.43;;;10.20;1.00;;;;;;6279140;22;40264;-78
2024/03/16 09:36:40;;;;;;;4.53;0.80;;;10.30;1.00;;;;;;6283442;22;38810;-77
2024/03/16 09:39:10;;;;;;;6.00;0.63;;;10.30;1.00;;;;;;6282593;22;37161;-77
2024/03/16 09:41:39;;;;;;;2.17;0.50;;;10.20;99.90;;;;;;6309108;22;38654;-77
2024/03/16 09:44:15;;;;;;;3.83;0.70;;;10.20;1.00;;;;;;6281389;22;38148;-78
2024/03/16 09:46:43;;;;;;;3.97;0.70;;;10.20;99.90;;;;;;6310826;22;39434;-78
2024/03/16 09:49:10;;;;;;;2.80;0.40;;;10.40;1.00;;;;;;6280400;22;36396;-78
2024/03/16 09:51:40;;;;;;;4.10;0.82;;;10.40;1.00;;;;;;6281740;22;37587;-77
2024/03/16 09:54:09;;;;;;;3.78;1.10;;;10.30;1.00;;;;;;6279944;22;38945;-77
2024/03/16 09:56:39;;;;;;;6.10;0.88;;;10.30;27.00;;;;;;6281817;22;37595;-77
2024/03/16 09:59:17;;;;;;;4.13;0.45;;;10.20;57.00;;;;;;6307947;22;37502;-78
2024/03/16 10:01:43;;;;;;;3.05;0.60;;;10.20;1.00;;;;;;6309030;22;38949;-77
2024/03/16 10:04:10;;;;;;;4.38;0.80;;;10.20;99.90;;;;;;6282228;22;38104;-77
2024/03/16 10:06:37;;;;;;;8.68;0.77;;;10.10;1.00;;;;;;6307070;22;38259;-78
2024/03/16 10:09:15;;;;;;;3.72;0.50;;;10.30;99.90;;;;;;6309578;22;37388;-79
2024/03/16 10:11:44;;;;;;;3.80;0.90;;;10.30;1.00;;;;;;6286502;22;38860;-80
2024/03/16 10:14:11;;;;;;;11.45;1.45;;;10.30;99.90;;;;;;6282656;22;38582;-78
2024/03/16 10:16:41;;;;;;;4.32;0.68;;;10.30;70.90;;;;;;6281239;22;37747;-78
2024/03/16 10:19:07;;;;;;;4.30;0.65;;;10.40;99.90;;;;;;6310013;22;36898;-77
2024/03/16 10:21:34;;;;;;;94.25;8.50;;;10.50;1.00;;;;;;6280989;22;37898;-78
2024/03/16 10:24:00;;;;;;;11.18;1.92;;;10.60;99.90;;;;;;6277064;22;38152;-76
2024/03/16 10:26:30;;;;;;;1999.90;355.65;;;10.60;1.00;;;;;;6278465;22;40711;-77
2024/03/16 10:29:03;;;;;;;6.18;1.85;;;10.60;85.70;;;;;;6278349;22;36917;-77
2024/03/16 10:31:30;;;;;;;44.40;6.65;;;10.70;1.00;;;;;;6280237;22;47232;-77
2024/03/16 10:33:59;;;;;;;36.97;4.85;;;10.70;1.00;;;;;;6308743;22;38835;-77
2024/03/16 10:36:26;;;;;;;8.40;1.05;;;10.60;99.90;;;;;;6308594;22;39688;-78
2024/03/16 10:38:55;;;;;;;13.75;2.03;;;10.60;99.90;;;;;;6281520;22;37539;-78
2024/03/16 10:41:22;;;;;;;43.67;4.55;;;10.60;44.90;;;;;;6307965;22;38682;-76
2024/03/16 10:43:50;;;;;;;69.32;8.90;;;10.80;99.90;;;;;;6280137;22;40405;-77
2024/03/16 10:46:17;;;;;;;4.95;0.90;;;11.00;99.90;;;;;;6280683;22;37909;-77
2024/03/16 10:48:43;;;;;;;5.15;0.93;;;11.10;99.90;;;;;;6281015;22;38030;-78
2024/03/16 10:51:14;;;;;;;16.88;1.75;;;11.00;21.10;;;;;;6308144;22;39344;-78
2024/03/16 10:53:41;;;;;;;11.95;1.40;;;11.00;99.90;;;;;;6313188;22;39267;-78
2024/03/16 10:56:07;;;;;;;12.25;2.03;;;11.20;99.90;;;;;;6283816;22;40015;-77
2024/03/16 10:58:33;;;;;;;5.75;1.10;;;11.70;99.90;;;;;;6312437;22;36837;-78
2024/03/16 11:01:18;;;;;;;6.03;1.23;;;11.90;1.00;;;;;;6284493;22;41456;-78
2024/03/16 11:03:45;;;;;;;4.35;0.82;;;11.50;1.00;;;;;;6288608;22;47009;-77
2024/03/16 11:06:19;;;;;;;6.78;1.10;;;11.10;99.90;;;;;;6291022;22;37118;-77
2024/03/16 11:08:46;;;;;;;7.90;1.20;;;11.10;99.90;;;;;;6315813;22;38037;-77
2024/03/16 11:11:20;;;;;;;8.65;1.17;;;11.00;99.90;;;;;;6283916;22;39178;-76
2024/03/16 11:13:56;;;;;;;6.43;1.02;;;10.80;99.90;;;;;;6284861;22;38148;-77
2024/03/16 11:16:27;;;;;;;5.85;0.82;;;10.70;83.00;;;;;;6284469;22;39119;-77
2024/03/16 11:19:08;;;;;;;6.32;1.05;;;10.60;99.90;;;;;;6286584;22;36410;-77
2024/03/16 11:21:37;;;;;;;9.85;1.10;;;10.60;99.90;;;;;;6288232;22;47619;-77
2024/03/16 11:24:13;;;;;;;9.13;1.77;;;10.60;99.90;;;;;;6284339;22;38951;-77
2024/03/16 11:26:40;;;;;;;4.35;1.00;;;10.70;99.90;;;;;;6284205;22;39038;-78
2024/03/16 11:29:16;;;;;;;8.50;1.05;;;10.70;99.90;;;;;;6282536;22;36490;-77
2024/03/16 11:31:46;;;;;;;7.97;1.08;;;10.80;12.50;;;;;;6312223;22;38606;-77
2024/03/16 11:34:14;;;;;;;9.43;1.42;;;10.80;99.90;;;;;;6283818;22;37986;-77
2024/03/16 11:36:41;;;;;;;6.28;1.10;;;10.90;99.90;;;;;;6287333;22;37780;-78
2024/03/16 11:39:11;;;;;;;3.42;1.00;;;10.80;99.90;;;;;;6288282;22;36239;-78
2024/03/16 11:41:44;;;;;;;2.20;0.40;;;10.90;1.00;;;;;;6284671;22;37736;-77
2024/03/16 11:44:15;;;;;;;4.93;1.25;;;11.00;1.00;;;;;;6286793;22;37864;-78
2024/03/16 11:46:42;;;;;;;5.70;0.80;;;11.10;99.90;;;;;;6316217;22;39355;-78
2024/03/16 11:49:15;;;;;;;4.10;0.75;;;11.30;1.00;;;;;;6314548;22;37236;-77
2024/03/16 11:51:47;;;;;;;8.85;1.00;;;11.50;99.90;;;;;;6313447;22;38577;-77
2024/03/16 11:54:15;;;;;;;6.13;1.25;;;11.50;1.00;;;;;;6285614;22;38963;-77
2024/03/16 11:56:42;;;;;;;4.30;1.13;;;11.50;1.00;;;;;;6316827;22;39150;-77
2024/03/16 11:59:18;;;;;;;4.32;1.00;;;11.50;1.00;;;;;;6287772;22;36676;-78
2024/03/16 12:01:48;;;;;;;7.65;1.50;;;11.50;1.00;;;;;;6317466;22;39210;-78
2024/03/16 12:04:17;;;;;;;10.35;1.30;;;11.30;1.00;;;;;;6288691;22;38909;-78
2024/03/16 12:06:46;;;;;;;6.13;1.27;;;11.20;1.00;;;;;;6289887;22;38142;-77
2024/03/16 12:09:30;;;;;;;7.10;1.45;;;11.00;99.90;;;;;;6288441;22;37195;-74
2024/03/16 12:12:00;;;;;;;13.20;1.77;;;10.90;99.90;;;;;;6291798;22;37949;-77
2024/03/16 12:14:27;;;;;;;8.63;1.88;;;10.90;99.90;;;;;;6315804;22;48076;-77
2024/03/16 12:16:56;;;;;;;7.05;1.13;;;10.70;99.90;;;;;;6317418;22;39098;-77
2024/03/16 12:19:22;;;;;;;7.38;1.85;;;10.50;99.90;;;;;;6312952;22;38528;-77
2024/03/16 12:21:49;;;;;;;8.13;1.50;;;10.40;1.00;;;;;;6315220;22;39445;-77
2024/03/16 12:24:17;;;;;;;9.93;1.33;;;10.30;99.90;;;;;;6315378;22;38767;-77
2024/03/16 12:26:45;;;;;;;11.77;2.13;;;10.30;99.90;;;;;;6310265;22;38823;-76
2024/03/16 12:29:17;;;;;;;4.43;1.00;;;10.40;99.90;;;;;;6313774;22;37189;-77
2024/03/16 12:31:44;;;;;;;6.28;1.20;;;10.40;99.90;;;;;;6312112;22;39099;-77
2024/03/16 12:34:12;;;;;;;9.73;1.70;;;10.40;99.90;;;;;;6312358;22;39820;-76
2024/03/16 12:36:39;;;;;;;6.97;1.70;;;10.50;99.90;;;;;;6284840;22;37587;-76
2024/03/16 12:39:08;;;;;;;7.30;1.45;;;10.50;84.90;;;;;;6282992;22;36578;-76
2024/03/16 12:41:38;;;;;;;7.78;1.42;;;10.60;93.50;;;;;;6312812;22;38743;-76
2024/03/16 12:44:05;;;;;;;10.23;1.23;;;10.70;99.90;;;;;;6311673;22;40220;-76
2024/03/16 12:46:31;;;;;;;7.40;1.35;;;10.80;99.90;;;;;;6284418;22;37852;-76
2024/03/16 12:48:58;;;;;;;8.32;1.42;;;10.90;99.90;;;;;;6311788;22;38145;-76
2024/03/16 12:51:24;;;;;;;10.60;2.22;;;11.00;99.90;;;;;;6282284;22;39162;-77
2024/03/16 12:53:50;;;;;;;8.10;1.45;;;10.90;99.90;;;;;;6284643;22;37817;-77
2024/03/16 12:56:16;;;;;;;7.30;1.50;;;10.90;1.00;;;;;;6284240;22;37072;-76